sensor_id;sensor_type;location;lat;lon;timestamp;P1;durP1;ratioP1;P2;durP2;ratioP2
37847;SDS011;23688;33.130;-117.188;2022-09-01T00:01:39;14.68;;;5.65;;
37847;SDS011;23688;33.130;-117.188;2022-09-01T00:04:08;11.77;;;5.55;;
37847;SDS011;23688;33.130;-117.188;2022-09-01T00:06:38;19.38;;;5.55;;
37847;SDS011;23688;33.130;-117.188;2022-09-01T00:09:06;13.43;;;5.60;;
37847;SDS011;23688;33.130;-117.188;2022-09-01T00:11:35;13.38;;;5.45;;
37847;SDS011;23688;33.130;-117.188;2022-09-01T00:14:02;12.15;;;5.50;;
37847;SDS011;23688;33.130;-117.188;2022-09-01T00:16:31;12.48;;;5.75;;
37847;SDS011;23688;33.130;-117.188;2022-09-01T00:18:58;12.50;;;5.03;;
37847;SDS011;23688;33.130;-117.188;2022-09-01T00:21:29;15.98;;;5.90;;
37847;SDS011;23688;33.130;-117.188;2022-09-01T00:23:58;13.30;;;5.95;;
37847;SDS011;23688;33.130;-117.188;2022-09-01T00:26:26;12.52;;;4.93;;
37847;SDS011;23688;33.130;-117.188;2022-09-01T00:28:52;11.50;;;5.40;;
37847;SDS011;23688;33.130;-117.188;2022-09-01T00:31:19;11.90;;;5.80;;
37847;SDS011;23688;33.130;-117.188;2022-09-01T00:33:47;13.02;;;5.07;;
37847;SDS011;23688;33.130;-117.188;2022-09-01T00:36:14;14.73;;;5.30;;
37847;SDS011;23688;33.130;-117.188;2022-09-01T00:38:41;13.75;;;5.05;;
37847;SDS011;23688;33.130;-117.188;2022-09-01T00:41:08;13.85;;;5.57;;
37847;SDS011;23688;33.130;-117.188;2022-09-01T00:43:42;18.58;;;5.72;;
37847;SDS011;23688;33.130;-117.188;2022-09-01T00:46:19;11.50;;;5.53;;
37847;SDS011;23688;33.130;-117.188;2022-09-01T00:48:50;16.95;;;5.82;;
37847;SDS011;23688;33.130;-117.188;2022-09-01T00:51:23;14.52;;;5.57;;
37847;SDS011;23688;33.130;-117.188;2022-09-01T00:53:51;12.32;;;5.25;;
37847;SDS011;23688;33.130;-117.188;2022-09-01T00:56:20;10.45;;;4.70;;
37847;SDS011;23688;33.130;-117.188;2022-09-01T00:58:49;13.82;;;5.45;;
37847;SDS011;23688;33.130;-117.188;2022-09-01T01:01:16;15.73;;;5.30;;
37847;SDS011;23688;33.130;-117.188;2022-09-01T01:03:42;19.23;;;6.07;;
37847;SDS011;23688;33.130;-117.188;2022-09-01T01:06:12;12.60;;;5.90;;
37847;SDS011;23688;33.130;-117.188;2022-09-01T01:08:42;15.88;;;5.60;;
37847;SDS011;23688;33.130;-117.188;2022-09-01T01:11:22;11.90;;;4.82;;
37847;SDS011;23688;33.130;-117.188;2022-09-01T01:16:40;16.58;;;6.38;;
37847;SDS011;23688;33.130;-117.188;2022-09-01T01:19:21;18.00;;;5.68;;
37847;SDS011;23688;33.130;-117.188;2022-09-01T01:22:13;14.52;;;5.53;;
37847;SDS011;23688;33.130;-117.188;2022-09-01T01:25:07;16.83;;;6.07;;
37847;SDS011;23688;33.130;-117.188;2022-09-01T01:27:37;13.52;;;5.97;;
37847;SDS011;23688;33.130;-117.188;2022-09-01T01:30:07;16.33;;;6.35;;
37847;SDS011;23688;33.130;-117.188;2022-09-01T01:32:36;13.25;;;5.32;;
37847;SDS011;23688;33.130;-117.188;2022-09-01T01:35:10;13.30;;;5.10;;
37847;SDS011;23688;33.130;-117.188;2022-09-01T01:37:42;15.23;;;5.93;;
37847;SDS011;23688;33.130;-117.188;2022-09-01T01:40:13;15.68;;;5.55;;
37847;SDS011;23688;33.130;-117.188;2022-09-01T01:42:45;15.70;;;5.60;;
37847;SDS011;23688;33.130;-117.188;2022-09-01T01:45:15;14.18;;;5.28;;
37847;SDS011;23688;33.130;-117.188;2022-09-01T01:47:44;12.95;;;4.68;;
37847;SDS011;23688;33.130;-117.188;2022-09-01T01:50:18;12.20;;;5.30;;
37847;SDS011;23688;33.130;-117.188;2022-09-01T01:52:49;8.63;;;4.65;;
37847;SDS011;23688;33.130;-117.188;2022-09-01T01:55:16;13.15;;;4.68;;
37847;SDS011;23688;33.130;-117.188;2022-09-01T01:57:46;18.98;;;6.07;;
37847;SDS011;23688;33.130;-117.188;2022-09-01T02:00:21;10.98;;;4.95;;
37847;SDS011;23688;33.130;-117.188;2022-09-01T02:02:51;11.57;;;4.60;;
37847;SDS011;23688;33.130;-117.188;2022-09-01T02:05:22;9.45;;;4.60;;
37847;SDS011;23688;33.130;-117.188;2022-09-01T02:07:52;9.73;;;4.55;;
37847;SDS011;23688;33.130;-117.188;2022-09-01T02:10:28;13.60;;;5.07;;
37847;SDS011;23688;33.130;-117.188;2022-09-01T02:13:01;11.27;;;4.43;;
37847;SDS011;23688;33.130;-117.188;2022-09-01T02:15:30;14.93;;;4.68;;
37847;SDS011;23688;33.130;-117.188;2022-09-01T02:18:04;15.05;;;4.35;;
37847;SDS011;23688;33.130;-117.188;2022-09-01T02:20:30;15.05;;;4.40;;
37847;SDS011;23688;33.130;-117.188;2022-09-01T02:22:57;11.73;;;4.75;;
37847;SDS011;23688;33.130;-117.188;2022-09-01T02:25:29;12.05;;;4.90;;
37847;SDS011;23688;33.130;-117.188;2022-09-01T02:27:56;12.57;;;4.78;;
37847;SDS011;23688;33.130;-117.188;2022-09-01T02:30:24;10.50;;;4.38;;
37847;SDS011;23688;33.130;-117.188;2022-09-01T02:32:53;15.98;;;5.50;;
37847;SDS011;23688;33.130;-117.188;2022-09-01T02:35:19;25.25;;;6.28;;
37847;SDS011;23688;33.130;-117.188;2022-09-01T02:37:46;12.95;;;5.03;;
37847;SDS011;23688;33.130;-117.188;2022-09-01T02:40:15;13.43;;;5.30;;
37847;SDS011;23688;33.130;-117.188;2022-09-01T02:42:42;13.40;;;5.93;;
37847;SDS011;23688;33.130;-117.188;2022-09-01T02:45:11;14.82;;;5.22;;
37847;SDS011;23688;33.130;-117.188;2022-09-01T02:50:07;11.80;;;5.43;;
37847;SDS011;23688;33.130;-117.188;2022-09-01T02:52:38;18.45;;;5.28;;
37847;SDS011;23688;33.130;-117.188;2022-09-01T02:55:05;15.40;;;5.93;;
37847;SDS011;23688;33.130;-117.188;2022-09-01T02:57:33;12.52;;;5.53;;
37847;SDS011;23688;33.130;-117.188;2022-09-01T02:59:59;17.65;;;6.18;;
37847;SDS011;23688;33.130;-117.188;2022-09-01T03:02:26;24.73;;;6.15;;
37847;SDS011;23688;33.130;-117.188;2022-09-01T03:04:53;20.30;;;6.03;;
37847;SDS011;23688;33.130;-117.188;2022-09-01T03:07:21;16.45;;;6.03;;
37847;SDS011;23688;33.130;-117.188;2022-09-01T03:09:49;16.90;;;5.35;;
37847;SDS011;23688;33.130;-117.188;2022-09-01T03:12:17;17.88;;;5.97;;
37847;SDS011;23688;33.130;-117.188;2022-09-01T03:14:44;19.42;;;5.95;;
37847;SDS011;23688;33.130;-117.188;2022-09-01T03:17:10;24.58;;;6.07;;
37847;SDS011;23688;33.130;-117.188;2022-09-01T03:19:38;15.25;;;6.13;;
37847;SDS011;23688;33.130;-117.188;2022-09-01T03:22:08;17.30;;;5.85;;
37847;SDS011;23688;33.130;-117.188;2022-09-01T03:24:34;16.05;;;5.60;;
37847;SDS011;23688;33.130;-117.188;2022-09-01T03:27:01;17.73;;;5.82;;
37847;SDS011;23688;33.130;-117.188;2022-09-01T03:29:27;18.33;;;5.72;;
37847;SDS011;23688;33.130;-117.188;2022-09-01T03:31:53;17.02;;;6.40;;
37847;SDS011;23688;33.130;-117.188;2022-09-01T03:34:20;17.27;;;6.03;;
37847;SDS011;23688;33.130;-117.188;2022-09-01T03:36:48;18.50;;;5.90;;
37847;SDS011;23688;33.130;-117.188;2022-09-01T03:39:16;15.55;;;6.13;;
37847;SDS011;23688;33.130;-117.188;2022-09-01T03:44:09;20.23;;;6.85;;
37847;SDS011;23688;33.130;-117.188;2022-09-01T03:46:38;23.58;;;6.30;;
37847;SDS011;23688;33.130;-117.188;2022-09-01T03:49:04;20.83;;;6.40;;
37847;SDS011;23688;33.130;-117.188;2022-09-01T03:51:32;19.90;;;6.17;;
37847;SDS011;23688;33.130;-117.188;2022-09-01T03:53:59;18.80;;;6.18;;
37847;SDS011;23688;33.130;-117.188;2022-09-01T03:56:26;24.35;;;6.63;;
37847;SDS011;23688;33.130;-117.188;2022-09-01T03:58:54;19.02;;;5.82;;
37847;SDS011;23688;33.130;-117.188;2022-09-01T04:01:22;22.33;;;6.35;;
37847;SDS011;23688;33.130;-117.188;2022-09-01T04:03:50;18.13;;;6.32;;
37847;SDS011;23688;33.130;-117.188;2022-09-01T04:06:17;15.63;;;6.38;;
37847;SDS011;23688;33.130;-117.188;2022-09-01T04:08:44;20.48;;;6.40;;
37847;SDS011;23688;33.130;-117.188;2022-09-01T04:11:13;20.10;;;5.95;;
37847;SDS011;23688;33.130;-117.188;2022-09-01T04:13:42;18.33;;;5.88;;
37847;SDS011;23688;33.130;-117.188;2022-09-01T04:16:17;14.38;;;5.93;;
37847;SDS011;23688;33.130;-117.188;2022-09-01T04:19:07;13.48;;;5.85;;
37847;SDS011;23688;33.130;-117.188;2022-09-01T04:22:02;25.33;;;7.03;;
37847;SDS011;23688;33.130;-117.188;2022-09-01T04:24:29;18.80;;;6.43;;
37847;SDS011;23688;33.130;-117.188;2022-09-01T04:26:58;19.95;;;6.35;;
37847;SDS011;23688;33.130;-117.188;2022-09-01T04:29:26;15.18;;;5.85;;
37847;SDS011;23688;33.130;-117.188;2022-09-01T04:31:54;18.95;;;6.15;;
37847;SDS011;23688;33.130;-117.188;2022-09-01T04:34:26;20.08;;;5.82;;
37847;SDS011;23688;33.130;-117.188;2022-09-01T04:37:02;13.10;;;5.93;;
37847;SDS011;23688;33.130;-117.188;2022-09-01T04:39:33;15.45;;;5.70;;
37847;SDS011;23688;33.130;-117.188;2022-09-01T04:42:00;16.70;;;6.40;;
37847;SDS011;23688;33.130;-117.188;2022-09-01T04:44:31;17.83;;;5.47;;
37847;SDS011;23688;33.130;-117.188;2022-09-01T04:46:57;11.90;;;5.30;;
37847;SDS011;23688;33.130;-117.188;2022-09-01T04:49:23;13.98;;;5.47;;
37847;SDS011;23688;33.130;-117.188;2022-09-01T04:51:51;17.45;;;5.47;;
37847;SDS011;23688;33.130;-117.188;2022-09-01T04:54:18;17.85;;;5.93;;
37847;SDS011;23688;33.130;-117.188;2022-09-01T04:56:47;17.83;;;6.18;;
37847;SDS011;23688;33.130;-117.188;2022-09-01T04:59:16;15.13;;;5.28;;
37847;SDS011;23688;33.130;-117.188;2022-09-01T05:01:45;17.90;;;5.28;;
37847;SDS011;23688;33.130;-117.188;2022-09-01T05:04:14;16.98;;;5.45;;
37847;SDS011;23688;33.130;-117.188;2022-09-01T05:06:48;13.95;;;5.72;;
37847;SDS011;23688;33.130;-117.188;2022-09-01T05:09:24;15.13;;;5.55;;
37847;SDS011;23688;33.130;-117.188;2022-09-01T05:11:51;13.80;;;5.35;;
37847;SDS011;23688;33.130;-117.188;2022-09-01T05:14:17;14.45;;;5.55;;
37847;SDS011;23688;33.130;-117.188;2022-09-01T05:16:45;16.15;;;5.70;;
37847;SDS011;23688;33.130;-117.188;2022-09-01T05:19:13;17.08;;;5.50;;
37847;SDS011;23688;33.130;-117.188;2022-09-01T05:21:43;16.63;;;5.32;;
37847;SDS011;23688;33.130;-117.188;2022-09-01T05:24:12;14.38;;;5.85;;
37847;SDS011;23688;33.130;-117.188;2022-09-01T05:26:42;13.75;;;5.45;;
37847;SDS011;23688;33.130;-117.188;2022-09-01T05:29:11;14.18;;;5.15;;
37847;SDS011;23688;33.130;-117.188;2022-09-01T05:31:40;15.20;;;5.60;;
37847;SDS011;23688;33.130;-117.188;2022-09-01T05:34:12;15.50;;;5.78;;
37847;SDS011;23688;33.130;-117.188;2022-09-01T05:36:47;19.45;;;6.15;;
37847;SDS011;23688;33.130;-117.188;2022-09-01T05:39:15;21.03;;;7.13;;
37847;SDS011;23688;33.130;-117.188;2022-09-01T05:41:41;19.42;;;6.68;;
37847;SDS011;23688;33.130;-117.188;2022-09-01T05:44:08;18.08;;;5.70;;
37847;SDS011;23688;33.130;-117.188;2022-09-01T05:46:36;19.52;;;6.43;;
37847;SDS011;23688;33.130;-117.188;2022-09-01T05:49:04;14.63;;;6.32;;
37847;SDS011;23688;33.130;-117.188;2022-09-01T05:51:33;12.07;;;5.45;;
37847;SDS011;23688;33.130;-117.188;2022-09-01T05:54:01;14.07;;;6.63;;
37847;SDS011;23688;33.130;-117.188;2022-09-01T05:56:28;22.55;;;6.57;;
37847;SDS011;23688;33.130;-117.188;2022-09-01T05:58:55;22.95;;;6.50;;
37847;SDS011;23688;33.130;-117.188;2022-09-01T06:01:26;21.02;;;6.07;;
37847;SDS011;23688;33.130;-117.188;2022-09-01T06:03:58;16.33;;;6.20;;
37847;SDS011;23688;33.130;-117.188;2022-09-01T06:06:49;17.58;;;6.30;;
37847;SDS011;23688;33.130;-117.188;2022-09-01T06:09:14;19.67;;;6.25;;
37847;SDS011;23688;33.130;-117.188;2022-09-01T06:11:48;24.65;;;6.20;;
37847;SDS011;23688;33.130;-117.188;2022-09-01T06:14:15;17.90;;;6.50;;
37847;SDS011;23688;33.130;-117.188;2022-09-01T06:16:42;13.18;;;5.18;;
37847;SDS011;23688;33.130;-117.188;2022-09-01T06:19:11;15.55;;;5.35;;
37847;SDS011;23688;33.130;-117.188;2022-09-01T06:21:38;14.88;;;6.28;;
37847;SDS011;23688;33.130;-117.188;2022-09-01T06:24:05;10.18;;;5.55;;
37847;SDS011;23688;33.130;-117.188;2022-09-01T06:26:33;18.20;;;6.13;;
37847;SDS011;23688;33.130;-117.188;2022-09-01T06:29:02;17.60;;;5.78;;
37847;SDS011;23688;33.130;-117.188;2022-09-01T06:31:33;20.67;;;5.95;;
37847;SDS011;23688;33.130;-117.188;2022-09-01T06:34:04;14.95;;;5.65;;
37847;SDS011;23688;33.130;-117.188;2022-09-01T06:36:34;15.43;;;5.50;;
37847;SDS011;23688;33.130;-117.188;2022-09-01T06:39:05;16.40;;;6.10;;
37847;SDS011;23688;33.130;-117.188;2022-09-01T06:41:34;14.02;;;6.00;;
37847;SDS011;23688;33.130;-117.188;2022-09-01T06:44:03;16.88;;;6.28;;
37847;SDS011;23688;33.130;-117.188;2022-09-01T06:46:29;14.02;;;6.60;;
37847;SDS011;23688;33.130;-117.188;2022-09-01T06:48:56;15.70;;;5.75;;
37847;SDS011;23688;33.130;-117.188;2022-09-01T06:51:24;12.48;;;5.45;;
37847;SDS011;23688;33.130;-117.188;2022-09-01T06:53:56;18.45;;;6.50;;
37847;SDS011;23688;33.130;-117.188;2022-09-01T06:56:24;14.15;;;5.90;;
37847;SDS011;23688;33.130;-117.188;2022-09-01T06:58:54;14.35;;;5.80;;
37847;SDS011;23688;33.130;-117.188;2022-09-01T07:01:22;9.70;;;5.33;;
37847;SDS011;23688;33.130;-117.188;2022-09-01T07:03:52;13.38;;;6.35;;
37847;SDS011;23688;33.130;-117.188;2022-09-01T07:06:21;16.42;;;6.13;;
37847;SDS011;23688;33.130;-117.188;2022-09-01T07:08:57;14.68;;;6.03;;
37847;SDS011;23688;33.130;-117.188;2022-09-01T07:11:26;14.02;;;5.82;;
37847;SDS011;23688;33.130;-117.188;2022-09-01T07:13:57;16.55;;;6.25;;
37847;SDS011;23688;33.130;-117.188;2022-09-01T07:16:29;15.20;;;5.90;;
37847;SDS011;23688;33.130;-117.188;2022-09-01T07:18:59;16.77;;;6.30;;
37847;SDS011;23688;33.130;-117.188;2022-09-01T07:21:27;23.70;;;7.13;;
37847;SDS011;23688;33.130;-117.188;2022-09-01T07:23:56;19.27;;;6.90;;
37847;SDS011;23688;33.130;-117.188;2022-09-01T07:26:26;17.90;;;6.32;;
37847;SDS011;23688;33.130;-117.188;2022-09-01T07:28:53;16.50;;;6.85;;
37847;SDS011;23688;33.130;-117.188;2022-09-01T07:31:24;18.38;;;6.75;;
37847;SDS011;23688;33.130;-117.188;2022-09-01T07:33:58;14.18;;;5.90;;
37847;SDS011;23688;33.130;-117.188;2022-09-01T07:36:28;20.52;;;6.22;;
37847;SDS011;23688;33.130;-117.188;2022-09-01T07:38:55;19.20;;;6.10;;
37847;SDS011;23688;33.130;-117.188;2022-09-01T07:41:22;15.93;;;6.78;;
37847;SDS011;23688;33.130;-117.188;2022-09-01T07:43:51;13.55;;;5.55;;
37847;SDS011;23688;33.130;-117.188;2022-09-01T07:46:19;15.93;;;5.95;;
37847;SDS011;23688;33.130;-117.188;2022-09-01T07:48:47;17.57;;;5.87;;
37847;SDS011;23688;33.130;-117.188;2022-09-01T07:51:16;16.27;;;6.40;;
37847;SDS011;23688;33.130;-117.188;2022-09-01T07:53:45;20.10;;;6.38;;
37847;SDS011;23688;33.130;-117.188;2022-09-01T07:56:16;13.77;;;6.05;;
37847;SDS011;23688;33.130;-117.188;2022-09-01T07:58:45;14.13;;;5.70;;
37847;SDS011;23688;33.130;-117.188;2022-09-01T08:01:20;16.08;;;6.38;;
37847;SDS011;23688;33.130;-117.188;2022-09-01T08:03:49;17.75;;;6.00;;
37847;SDS011;23688;33.130;-117.188;2022-09-01T08:06:22;16.92;;;6.18;;
37847;SDS011;23688;33.130;-117.188;2022-09-01T08:08:51;14.63;;;6.40;;
37847;SDS011;23688;33.130;-117.188;2022-09-01T08:11:19;16.20;;;5.68;;
37847;SDS011;23688;33.130;-117.188;2022-09-01T08:13:49;11.07;;;5.78;;
37847;SDS011;23688;33.130;-117.188;2022-09-01T08:16:16;19.35;;;5.93;;
37847;SDS011;23688;33.130;-117.188;2022-09-01T08:18:43;13.35;;;6.55;;
37847;SDS011;23688;33.130;-117.188;2022-09-01T08:21:12;18.10;;;6.90;;
37847;SDS011;23688;33.130;-117.188;2022-09-01T08:23:40;19.33;;;6.43;;
37847;SDS011;23688;33.130;-117.188;2022-09-01T08:26:07;18.98;;;6.20;;
37847;SDS011;23688;33.130;-117.188;2022-09-01T08:28:35;18.00;;;6.10;;
37847;SDS011;23688;33.130;-117.188;2022-09-01T08:31:06;19.10;;;6.53;;
37847;SDS011;23688;33.130;-117.188;2022-09-01T08:33:37;16.50;;;6.22;;
37847;SDS011;23688;33.130;-117.188;2022-09-01T08:36:09;16.83;;;5.80;;
37847;SDS011;23688;33.130;-117.188;2022-09-01T08:38:37;17.00;;;6.05;;
37847;SDS011;23688;33.130;-117.188;2022-09-01T08:41:05;15.68;;;6.38;;
37847;SDS011;23688;33.130;-117.188;2022-09-01T08:46:26;19.90;;;6.00;;
37847;SDS011;23688;33.130;-117.188;2022-09-01T08:49:15;13.60;;;6.00;;
37847;SDS011;23688;33.130;-117.188;2022-09-01T08:57:20;22.80;;;6.85;;
37847;SDS011;23688;33.130;-117.188;2022-09-01T08:59:51;14.40;;;6.03;;
37847;SDS011;23688;33.130;-117.188;2022-09-01T09:02:33;18.40;;;7.05;;
37847;SDS011;23688;33.130;-117.188;2022-09-01T09:05:21;19.48;;;7.38;;
37847;SDS011;23688;33.130;-117.188;2022-09-01T09:13:49;16.60;;;6.45;;
37847;SDS011;23688;33.130;-117.188;2022-09-01T09:16:39;13.60;;;6.22;;
37847;SDS011;23688;33.130;-117.188;2022-09-01T09:19:14;12.90;;;6.13;;
37847;SDS011;23688;33.130;-117.188;2022-09-01T09:21:48;14.23;;;6.32;;
37847;SDS011;23688;33.130;-117.188;2022-09-01T09:24:25;15.35;;;6.15;;
37847;SDS011;23688;33.130;-117.188;2022-09-01T09:26:57;18.35;;;6.85;;
37847;SDS011;23688;33.130;-117.188;2022-09-01T09:29:24;20.25;;;6.65;;
37847;SDS011;23688;33.130;-117.188;2022-09-01T09:32:04;20.60;;;6.82;;
37847;SDS011;23688;33.130;-117.188;2022-09-01T09:34:34;15.30;;;6.70;;
37847;SDS011;23688;33.130;-117.188;2022-09-01T09:37:21;23.50;;;7.18;;
37847;SDS011;23688;33.130;-117.188;2022-09-01T09:42:27;20.73;;;7.10;;
37847;SDS011;23688;33.130;-117.188;2022-09-01T09:44:53;16.77;;;6.90;;
37847;SDS011;23688;33.130;-117.188;2022-09-01T09:50:13;21.73;;;6.78;;
37847;SDS011;23688;33.130;-117.188;2022-09-01T09:52:44;16.33;;;6.97;;
37847;SDS011;23688;33.130;-117.188;2022-09-01T09:55:21;17.67;;;7.55;;
37847;SDS011;23688;33.130;-117.188;2022-09-01T09:57:54;29.10;;;6.72;;
37847;SDS011;23688;33.130;-117.188;2022-09-01T10:00:30;14.35;;;6.32;;
37847;SDS011;23688;33.130;-117.188;2022-09-01T10:03:06;19.55;;;6.38;;
37847;SDS011;23688;33.130;-117.188;2022-09-01T10:05:42;23.60;;;6.50;;
37847;SDS011;23688;33.130;-117.188;2022-09-01T10:10:58;25.45;;;7.25;;
37847;SDS011;23688;33.130;-117.188;2022-09-01T10:13:26;22.65;;;7.13;;
37847;SDS011;23688;33.130;-117.188;2022-09-01T10:16:00;17.20;;;6.63;;
37847;SDS011;23688;33.130;-117.188;2022-09-01T10:18:30;17.50;;;7.13;;
37847;SDS011;23688;33.130;-117.188;2022-09-01T10:21:03;18.17;;;6.78;;
37847;SDS011;23688;33.130;-117.188;2022-09-01T10:23:48;19.02;;;6.90;;
37847;SDS011;23688;33.130;-117.188;2022-09-01T10:26:16;19.05;;;6.82;;
37847;SDS011;23688;33.130;-117.188;2022-09-01T10:28:55;18.23;;;7.13;;
37847;SDS011;23688;33.130;-117.188;2022-09-01T10:31:41;20.27;;;7.45;;
37847;SDS011;23688;33.130;-117.188;2022-09-01T10:34:10;14.23;;;7.00;;
37847;SDS011;23688;33.130;-117.188;2022-09-01T10:36:40;22.63;;;6.75;;
37847;SDS011;23688;33.130;-117.188;2022-09-01T10:39:11;16.33;;;6.43;;
37847;SDS011;23688;33.130;-117.188;2022-09-01T10:44:22;16.65;;;6.90;;
37847;SDS011;23688;33.130;-117.188;2022-09-01T10:46:55;19.60;;;7.40;;
37847;SDS011;23688;33.130;-117.188;2022-09-01T10:51:54;20.58;;;7.35;;
37847;SDS011;23688;33.130;-117.188;2022-09-01T10:57:29;17.25;;;6.72;;
37847;SDS011;23688;33.130;-117.188;2022-09-01T11:13:56;16.33;;;7.30;;
37847;SDS011;23688;33.130;-117.188;2022-09-01T11:16:31;20.67;;;7.55;;
37847;SDS011;23688;33.130;-117.188;2022-09-01T11:19:20;17.90;;;7.22;;
37847;SDS011;23688;33.130;-117.188;2022-09-01T11:27:09;19.95;;;7.10;;
37847;SDS011;23688;33.130;-117.188;2022-09-01T11:29:56;20.13;;;7.07;;
37847;SDS011;23688;33.130;-117.188;2022-09-01T11:32:31;18.60;;;7.85;;
37847;SDS011;23688;33.130;-117.188;2022-09-01T11:35:01;22.63;;;7.13;;
37847;SDS011;23688;33.130;-117.188;2022-09-01T11:37:32;19.38;;;7.00;;
37847;SDS011;23688;33.130;-117.188;2022-09-01T11:39:59;15.68;;;7.15;;
37847;SDS011;23688;33.130;-117.188;2022-09-01T11:42:41;19.75;;;7.30;;
37847;SDS011;23688;33.130;-117.188;2022-09-01T11:47:44;23.38;;;7.60;;
37847;SDS011;23688;33.130;-117.188;2022-09-01T11:50:28;28.13;;;8.27;;
37847;SDS011;23688;33.130;-117.188;2022-09-01T11:53:05;20.98;;;7.70;;
37847;SDS011;23688;33.130;-117.188;2022-09-01T11:55:39;17.42;;;7.47;;
37847;SDS011;23688;33.130;-117.188;2022-09-01T11:58:10;16.67;;;7.38;;
37847;SDS011;23688;33.130;-117.188;2022-09-01T12:00:41;21.35;;;7.35;;
37847;SDS011;23688;33.130;-117.188;2022-09-01T12:03:22;14.75;;;7.00;;
37847;SDS011;23688;33.130;-117.188;2022-09-01T12:05:54;15.68;;;7.28;;
37847;SDS011;23688;33.130;-117.188;2022-09-01T12:08:25;17.98;;;7.40;;
37847;SDS011;23688;33.130;-117.188;2022-09-01T12:11:11;14.38;;;7.07;;
37847;SDS011;23688;33.130;-117.188;2022-09-01T12:13:53;14.82;;;7.32;;
37847;SDS011;23688;33.130;-117.188;2022-09-01T12:16:25;19.48;;;6.60;;
37847;SDS011;23688;33.130;-117.188;2022-09-01T12:18:54;18.75;;;8.20;;
37847;SDS011;23688;33.130;-117.188;2022-09-01T12:26:59;23.15;;;7.07;;
37847;SDS011;23688;33.130;-117.188;2022-09-01T12:29:27;24.60;;;7.07;;
37847;SDS011;23688;33.130;-117.188;2022-09-01T12:31:56;19.33;;;7.65;;
37847;SDS011;23688;33.130;-117.188;2022-09-01T12:34:27;19.23;;;7.75;;
37847;SDS011;23688;33.130;-117.188;2022-09-01T12:37:07;16.52;;;8.25;;
37847;SDS011;23688;33.130;-117.188;2022-09-01T12:39:44;19.73;;;8.43;;
37847;SDS011;23688;33.130;-117.188;2022-09-01T12:45:05;22.42;;;7.80;;
37847;SDS011;23688;33.130;-117.188;2022-09-01T12:50:07;26.73;;;7.97;;
37847;SDS011;23688;33.130;-117.188;2022-09-01T12:52:34;19.67;;;8.30;;
37847;SDS011;23688;33.130;-117.188;2022-09-01T12:55:17;14.25;;;7.03;;
37847;SDS011;23688;33.130;-117.188;2022-09-01T12:57:52;24.30;;;8.05;;
37847;SDS011;23688;33.130;-117.188;2022-09-01T13:00:22;19.77;;;7.90;;
37847;SDS011;23688;33.130;-117.188;2022-09-01T13:03:04;20.10;;;7.47;;
37847;SDS011;23688;33.130;-117.188;2022-09-01T13:05:38;19.15;;;8.68;;
37847;SDS011;23688;33.130;-117.188;2022-09-01T13:08:10;17.90;;;8.07;;
37847;SDS011;23688;33.130;-117.188;2022-09-01T13:10:43;20.58;;;7.63;;
37847;SDS011;23688;33.130;-117.188;2022-09-01T13:13:10;16.38;;;7.63;;
37847;SDS011;23688;33.130;-117.188;2022-09-01T13:15:40;23.90;;;8.20;;
37847;SDS011;23688;33.130;-117.188;2022-09-01T13:18:12;19.17;;;7.55;;
37847;SDS011;23688;33.130;-117.188;2022-09-01T13:20:40;22.33;;;8.80;;
37847;SDS011;23688;33.130;-117.188;2022-09-01T13:23:07;21.52;;;8.15;;
37847;SDS011;23688;33.130;-117.188;2022-09-01T13:25:36;25.02;;;8.90;;
37847;SDS011;23688;33.130;-117.188;2022-09-01T13:28:08;16.70;;;7.93;;
37847;SDS011;23688;33.130;-117.188;2022-09-01T13:30:35;22.08;;;7.93;;
37847;SDS011;23688;33.130;-117.188;2022-09-01T13:33:03;22.52;;;8.77;;
37847;SDS011;23688;33.130;-117.188;2022-09-01T13:35:29;26.88;;;9.13;;
37847;SDS011;23688;33.130;-117.188;2022-09-01T13:37:56;20.58;;;7.50;;
37847;SDS011;23688;33.130;-117.188;2022-09-01T13:40:22;27.80;;;8.43;;
37847;SDS011;23688;33.130;-117.188;2022-09-01T13:42:49;19.90;;;8.00;;
37847;SDS011;23688;33.130;-117.188;2022-09-01T13:45:18;20.55;;;8.02;;
37847;SDS011;23688;33.130;-117.188;2022-09-01T13:47:47;15.77;;;7.03;;
37847;SDS011;23688;33.130;-117.188;2022-09-01T13:50:24;25.48;;;7.28;;
37847;SDS011;23688;33.130;-117.188;2022-09-01T13:52:52;20.40;;;7.57;;
37847;SDS011;23688;33.130;-117.188;2022-09-01T13:55:28;22.70;;;8.02;;
37847;SDS011;23688;33.130;-117.188;2022-09-01T13:57:56;19.52;;;8.20;;
37847;SDS011;23688;33.130;-117.188;2022-09-01T14:00:26;16.65;;;7.30;;
37847;SDS011;23688;33.130;-117.188;2022-09-01T14:02:56;23.88;;;7.68;;
37847;SDS011;23688;33.130;-117.188;2022-09-01T14:05:31;16.40;;;6.95;;
37847;SDS011;23688;33.130;-117.188;2022-09-01T14:07:59;21.00;;;7.40;;
37847;SDS011;23688;33.130;-117.188;2022-09-01T14:10:27;20.58;;;7.40;;
37847;SDS011;23688;33.130;-117.188;2022-09-01T14:12:56;24.17;;;8.68;;
37847;SDS011;23688;33.130;-117.188;2022-09-01T14:15:23;24.45;;;8.73;;
37847;SDS011;23688;33.130;-117.188;2022-09-01T14:17:51;29.33;;;8.93;;
37847;SDS011;23688;33.130;-117.188;2022-09-01T14:20:21;23.13;;;8.70;;
37847;SDS011;23688;33.130;-117.188;2022-09-01T14:22:50;22.63;;;7.82;;
37847;SDS011;23688;33.130;-117.188;2022-09-01T14:25:17;23.40;;;7.90;;
37847;SDS011;23688;33.130;-117.188;2022-09-01T14:27:44;32.72;;;9.95;;
37847;SDS011;23688;33.130;-117.188;2022-09-01T14:30:15;24.50;;;9.15;;
37847;SDS011;23688;33.130;-117.188;2022-09-01T14:32:44;15.02;;;7.22;;
37847;SDS011;23688;33.130;-117.188;2022-09-01T14:35:12;25.73;;;8.45;;
37847;SDS011;23688;33.130;-117.188;2022-09-01T14:37:39;24.75;;;8.35;;
37847;SDS011;23688;33.130;-117.188;2022-09-01T14:40:06;22.45;;;8.43;;
37847;SDS011;23688;33.130;-117.188;2022-09-01T14:42:35;21.77;;;8.40;;
37847;SDS011;23688;33.130;-117.188;2022-09-01T14:45:02;21.48;;;8.00;;
37847;SDS011;23688;33.130;-117.188;2022-09-01T14:47:29;28.23;;;8.47;;
37847;SDS011;23688;33.130;-117.188;2022-09-01T14:49:56;25.60;;;8.18;;
37847;SDS011;23688;33.130;-117.188;2022-09-01T14:52:22;32.35;;;9.05;;
37847;SDS011;23688;33.130;-117.188;2022-09-01T14:54:48;28.27;;;8.15;;
37847;SDS011;23688;33.130;-117.188;2022-09-01T14:57:15;23.63;;;8.55;;
37847;SDS011;23688;33.130;-117.188;2022-09-01T14:59:41;24.75;;;8.40;;
37847;SDS011;23688;33.130;-117.188;2022-09-01T15:02:07;23.35;;;7.93;;
37847;SDS011;23688;33.130;-117.188;2022-09-01T15:04:34;31.10;;;8.60;;
37847;SDS011;23688;33.130;-117.188;2022-09-01T15:07:02;30.30;;;8.88;;
37847;SDS011;23688;33.130;-117.188;2022-09-01T15:09:29;43.42;;;9.88;;
37847;SDS011;23688;33.130;-117.188;2022-09-01T15:11:56;35.22;;;8.82;;
37847;SDS011;23688;33.130;-117.188;2022-09-01T15:14:22;42.38;;;9.52;;
37847;SDS011;23688;33.130;-117.188;2022-09-01T15:16:48;31.58;;;9.73;;
37847;SDS011;23688;33.130;-117.188;2022-09-01T15:19:15;33.17;;;8.38;;
37847;SDS011;23688;33.130;-117.188;2022-09-01T15:21:42;39.42;;;10.07;;
37847;SDS011;23688;33.130;-117.188;2022-09-01T15:24:11;31.48;;;8.15;;
37847;SDS011;23688;33.130;-117.188;2022-09-01T15:26:38;26.60;;;8.82;;